sensor_id;sensor_type;location;lat;lon;timestamp;P1;durP1;ratioP1;P2;durP2;ratioP2
49440;SDS011;35317;51.978;6.296;2023-06-10T00:00:27;6.25;;;4.70;;
49440;SDS011;35317;51.978;6.296;2023-06-10T00:05:30;7.70;;;4.50;;
49440;SDS011;35317;51.978;6.296;2023-06-10T00:10:31;7.68;;;4.45;;
49440;SDS011;35317;51.978;6.296;2023-06-10T00:15:35;7.03;;;4.07;;
49440;SDS011;35317;51.978;6.296;2023-06-10T00:20:36;6.15;;;4.40;;
49440;SDS011;35317;51.978;6.296;2023-06-10T00:25:37;5.38;;;4.03;;
49440;SDS011;35317;51.978;6.296;2023-06-10T00:30:38;4.90;;;4.22;;
49440;SDS011;35317;51.978;6.296;2023-06-10T00:35:39;8.15;;;4.00;;
49440;SDS011;35317;51.978;6.296;2023-06-10T00:40:40;5.35;;;4.00;;
49440;SDS011;35317;51.978;6.296;2023-06-10T00:45:42;8.23;;;4.32;;
49440;SDS011;35317;51.978;6.296;2023-06-10T00:50:42;6.47;;;4.10;;
49440;SDS011;35317;51.978;6.296;2023-06-10T00:55:44;6.82;;;4.47;;
49440;SDS011;35317;51.978;6.296;2023-06-10T01:00:45;7.28;;;4.30;;
49440;SDS011;35317;51.978;6.296;2023-06-10T01:05:48;5.75;;;4.38;;
49440;SDS011;35317;51.978;6.296;2023-06-10T01:11:01;6.70;;;4.30;;
49440;SDS011;35317;51.978;6.296;2023-06-10T01:16:08;5.40;;;4.28;;
49440;SDS011;35317;51.978;6.296;2023-06-10T01:21:13;7.15;;;4.28;;
49440;SDS011;35317;51.978;6.296;2023-06-10T01:26:25;4.63;;;4.03;;
49440;SDS011;35317;51.978;6.296;2023-06-10T01:31:41;5.68;;;4.28;;
49440;SDS011;35317;51.978;6.296;2023-06-10T01:36:53;6.38;;;4.00;;
49440;SDS011;35317;51.978;6.296;2023-06-10T01:41:56;4.97;;;4.07;;
49440;SDS011;35317;51.978;6.296;2023-06-10T01:46:57;6.30;;;4.38;;
49440;SDS011;35317;51.978;6.296;2023-06-10T01:51:57;6.70;;;4.40;;
49440;SDS011;35317;51.978;6.296;2023-06-10T01:56:58;5.80;;;4.38;;
49440;SDS011;35317;51.978;6.296;2023-06-10T02:01:59;9.85;;;4.45;;
49440;SDS011;35317;51.978;6.296;2023-06-10T02:07:00;5.32;;;4.20;;
49440;SDS011;35317;51.978;6.296;2023-06-10T02:12:04;8.55;;;4.30;;
49440;SDS011;35317;51.978;6.296;2023-06-10T02:17:06;7.32;;;4.45;;
49440;SDS011;35317;51.978;6.296;2023-06-10T02:22:10;6.32;;;4.28;;
49440;SDS011;35317;51.978;6.296;2023-06-10T02:27:11;6.13;;;3.85;;
49440;SDS011;35317;51.978;6.296;2023-06-10T02:32:12;5.82;;;3.80;;
49440;SDS011;35317;51.978;6.296;2023-06-10T02:37:13;7.38;;;3.45;;
49440;SDS011;35317;51.978;6.296;2023-06-10T02:42:13;7.22;;;3.72;;
49440;SDS011;35317;51.978;6.296;2023-06-10T02:47:14;6.38;;;4.03;;
49440;SDS011;35317;51.978;6.296;2023-06-10T02:52:15;11.45;;;3.83;;
49440;SDS011;35317;51.978;6.296;2023-06-10T02:57:16;9.40;;;3.92;;
49440;SDS011;35317;51.978;6.296;2023-06-10T03:02:17;6.28;;;3.85;;
49440;SDS011;35317;51.978;6.296;2023-06-10T03:07:17;6.55;;;3.95;;
49440;SDS011;35317;51.978;6.296;2023-06-10T03:12:20;7.28;;;3.55;;
49440;SDS011;35317;51.978;6.296;2023-06-10T03:17:21;7.03;;;3.97;;
49440;SDS011;35317;51.978;6.296;2023-06-10T03:22:22;8.95;;;4.30;;
49440;SDS011;35317;51.978;6.296;2023-06-10T03:27:23;7.78;;;4.30;;
49440;SDS011;35317;51.978;6.296;2023-06-10T03:32:24;9.25;;;4.10;;
49440;SDS011;35317;51.978;6.296;2023-06-10T03:37:25;7.05;;;4.45;;
49440;SDS011;35317;51.978;6.296;2023-06-10T03:42:26;8.80;;;4.65;;
49440;SDS011;35317;51.978;6.296;2023-06-10T03:47:32;6.78;;;3.83;;
49440;SDS011;35317;51.978;6.296;2023-06-10T03:52:37;8.32;;;4.75;;
49440;SDS011;35317;51.978;6.296;2023-06-10T03:57:39;8.80;;;4.85;;
49440;SDS011;35317;51.978;6.296;2023-06-10T04:02:40;7.88;;;4.70;;
49440;SDS011;35317;51.978;6.296;2023-06-10T04:07:45;6.70;;;3.97;;
49440;SDS011;35317;51.978;6.296;2023-06-10T04:12:48;7.32;;;3.75;;
49440;SDS011;35317;51.978;6.296;2023-06-10T04:17:49;6.95;;;3.83;;
49440;SDS011;35317;51.978;6.296;2023-06-10T04:22:50;10.98;;;4.07;;
49440;SDS011;35317;51.978;6.296;2023-06-10T04:27:51;9.35;;;4.03;;
49440;SDS011;35317;51.978;6.296;2023-06-10T04:32:51;10.50;;;4.43;;
49440;SDS011;35317;51.978;6.296;2023-06-10T04:37:52;8.75;;;4.40;;
49440;SDS011;35317;51.978;6.296;2023-06-10T04:42:53;7.03;;;4.45;;
49440;SDS011;35317;51.978;6.296;2023-06-10T04:47:54;7.55;;;4.00;;
49440;SDS011;35317;51.978;6.296;2023-06-10T04:52:55;12.88;;;4.30;;
49440;SDS011;35317;51.978;6.296;2023-06-10T04:57:57;9.40;;;4.90;;
49440;SDS011;35317;51.978;6.296;2023-06-10T05:02:57;6.55;;;4.30;;
49440;SDS011;35317;51.978;6.296;2023-06-10T05:07:58;9.45;;;4.18;;
49440;SDS011;35317;51.978;6.296;2023-06-10T05:12:59;8.55;;;4.30;;
49440;SDS011;35317;51.978;6.296;2023-06-10T05:18:00;7.45;;;4.03;;
49440;SDS011;35317;51.978;6.296;2023-06-10T05:23:02;10.50;;;4.70;;
49440;SDS011;35317;51.978;6.296;2023-06-10T05:28:03;9.25;;;4.07;;
49440;SDS011;35317;51.978;6.296;2023-06-10T05:33:04;7.65;;;4.30;;
49440;SDS011;35317;51.978;6.296;2023-06-10T05:38:05;8.00;;;3.92;;
49440;SDS011;35317;51.978;6.296;2023-06-10T05:43:06;6.13;;;3.78;;
49440;SDS011;35317;51.978;6.296;2023-06-10T05:48:06;7.05;;;4.32;;
49440;SDS011;35317;51.978;6.296;2023-06-10T05:53:07;7.70;;;4.35;;
49440;SDS011;35317;51.978;6.296;2023-06-10T05:58:14;9.02;;;4.13;;
49440;SDS011;35317;51.978;6.296;2023-06-10T06:03:15;6.45;;;3.88;;
49440;SDS011;35317;51.978;6.296;2023-06-10T06:08:17;6.70;;;4.05;;
49440;SDS011;35317;51.978;6.296;2023-06-10T06:13:18;6.75;;;4.50;;
49440;SDS011;35317;51.978;6.296;2023-06-10T06:18:19;10.00;;;4.10;;
49440;SDS011;35317;51.978;6.296;2023-06-10T06:23:20;5.45;;;3.80;;
49440;SDS011;35317;51.978;6.296;2023-06-10T06:28:21;6.07;;;3.60;;
49440;SDS011;35317;51.978;6.296;2023-06-10T06:33:22;5.85;;;3.78;;
49440;SDS011;35317;51.978;6.296;2023-06-10T06:38:23;8.15;;;4.43;;
49440;SDS011;35317;51.978;6.296;2023-06-10T06:43:24;6.78;;;3.88;;
49440;SDS011;35317;51.978;6.296;2023-06-10T06:48:25;8.70;;;4.00;;
49440;SDS011;35317;51.978;6.296;2023-06-10T06:53:26;6.72;;;4.00;;
49440;SDS011;35317;51.978;6.296;2023-06-10T06:58:26;10.45;;;4.55;;
49440;SDS011;35317;51.978;6.296;2023-06-10T07:03:28;8.63;;;4.25;;
49440;SDS011;35317;51.978;6.296;2023-06-10T07:08:32;6.93;;;3.97;;
49440;SDS011;35317;51.978;6.296;2023-06-10T07:13:33;6.90;;;3.65;;
49440;SDS011;35317;51.978;6.296;2023-06-10T07:18:34;5.57;;;3.67;;
49440;SDS011;35317;51.978;6.296;2023-06-10T07:23:35;6.93;;;3.95;;
49440;SDS011;35317;51.978;6.296;2023-06-10T07:28:35;6.00;;;3.78;;
49440;SDS011;35317;51.978;6.296;2023-06-10T07:33:37;8.55;;;3.97;;
49440;SDS011;35317;51.978;6.296;2023-06-10T07:38:39;8.32;;;3.78;;
49440;SDS011;35317;51.978;6.296;2023-06-10T07:43:42;5.45;;;3.72;;
49440;SDS011;35317;51.978;6.296;2023-06-10T07:48:43;7.07;;;4.18;;
49440;SDS011;35317;51.978;6.296;2023-06-10T07:53:43;5.60;;;3.47;;
49440;SDS011;35317;51.978;6.296;2023-06-10T07:58:44;9.18;;;3.58;;
49440;SDS011;35317;51.978;6.296;2023-06-10T08:03:45;6.90;;;3.83;;
49440;SDS011;35317;51.978;6.296;2023-06-10T08:08:46;3.83;;;3.10;;
49440;SDS011;35317;51.978;6.296;2023-06-10T08:13:47;6.03;;;3.40;;
49440;SDS011;35317;51.978;6.296;2023-06-10T08:18:48;4.85;;;3.13;;
49440;SDS011;35317;51.978;6.296;2023-06-10T08:23:52;5.93;;;3.08;;
49440;SDS011;35317;51.978;6.296;2023-06-10T08:28:54;5.50;;;3.13;;
49440;SDS011;35317;51.978;6.296;2023-06-10T08:33:55;5.88;;;3.30;;
49440;SDS011;35317;51.978;6.296;2023-06-10T08:38:56;4.15;;;3.10;;
49440;SDS011;35317;51.978;6.296;2023-06-10T08:49:20;4.90;;;3.00;;
49440;SDS011;35317;51.978;6.296;2023-06-10T08:54:25;4.35;;;2.70;;
49440;SDS011;35317;51.978;6.296;2023-06-10T08:59:31;4.22;;;2.60;;
49440;SDS011;35317;51.978;6.296;2023-06-10T09:04:31;5.72;;;2.60;;
49440;SDS011;35317;51.978;6.296;2023-06-10T09:09:33;4.88;;;2.90;;
49440;SDS011;35317;51.978;6.296;2023-06-10T09:14:36;4.97;;;2.30;;
49440;SDS011;35317;51.978;6.296;2023-06-10T09:19:36;5.55;;;2.67;;
49440;SDS011;35317;51.978;6.296;2023-06-10T09:24:39;3.63;;;2.60;;
49440;SDS011;35317;51.978;6.296;2023-06-10T09:34:51;3.03;;;2.50;;
49440;SDS011;35317;51.978;6.296;2023-06-10T09:40:11;3.83;;;2.42;;
49440;SDS011;35317;51.978;6.296;2023-06-10T09:45:12;4.88;;;2.70;;
49440;SDS011;35317;51.978;6.296;2023-06-10T09:50:13;3.53;;;2.42;;
49440;SDS011;35317;51.978;6.296;2023-06-10T09:55:14;3.65;;;2.47;;
49440;SDS011;35317;51.978;6.296;2023-06-10T10:00:15;3.00;;;2.22;;
49440;SDS011;35317;51.978;6.296;2023-06-10T10:05:17;3.55;;;2.67;;
49440;SDS011;35317;51.978;6.296;2023-06-10T10:10:22;2.97;;;2.40;;
49440;SDS011;35317;51.978;6.296;2023-06-10T10:15:23;4.38;;;2.30;;
49440;SDS011;35317;51.978;6.296;2023-06-10T10:20:31;2.67;;;2.33;;
49440;SDS011;35317;51.978;6.296;2023-06-10T10:25:37;3.67;;;2.58;;
49440;SDS011;35317;51.978;6.296;2023-06-10T10:30:51;4.28;;;2.72;;
49440;SDS011;35317;51.978;6.296;2023-06-10T10:40:55;4.15;;;2.75;;
49440;SDS011;35317;51.978;6.296;2023-06-10T10:46:00;3.88;;;2.53;;
49440;SDS011;35317;51.978;6.296;2023-06-10T10:51:01;3.50;;;2.42;;
49440;SDS011;35317;51.978;6.296;2023-06-10T10:56:06;3.67;;;2.20;;
49440;SDS011;35317;51.978;6.296;2023-06-10T11:01:12;3.72;;;2.60;;
49440;SDS011;35317;51.978;6.296;2023-06-10T11:06:15;4.75;;;2.42;;
49440;SDS011;35317;51.978;6.296;2023-06-10T11:11:19;3.63;;;2.35;;
49440;SDS011;35317;51.978;6.296;2023-06-10T11:16:26;3.60;;;2.78;;
49440;SDS011;35317;51.978;6.296;2023-06-10T11:21:28;4.03;;;2.40;;
49440;SDS011;35317;51.978;6.296;2023-06-10T11:26:29;3.13;;;2.28;;
49440;SDS011;35317;51.978;6.296;2023-06-10T11:31:33;4.72;;;2.75;;
49440;SDS011;35317;51.978;6.296;2023-06-10T11:36:42;3.50;;;2.22;;
49440;SDS011;35317;51.978;6.296;2023-06-10T11:41:45;4.03;;;2.53;;
49440;SDS011;35317;51.978;6.296;2023-06-10T11:46:47;4.65;;;2.40;;
49440;SDS011;35317;51.978;6.296;2023-06-10T11:51:49;5.35;;;2.42;;
49440;SDS011;35317;51.978;6.296;2023-06-10T11:56:56;2.90;;;2.60;;
49440;SDS011;35317;51.978;6.296;2023-06-10T12:01:59;3.65;;;2.58;;
49440;SDS011;35317;51.978;6.296;2023-06-10T12:07:00;2.92;;;2.33;;
49440;SDS011;35317;51.978;6.296;2023-06-10T12:12:02;4.18;;;2.58;;
49440;SDS011;35317;51.978;6.296;2023-06-10T12:17:06;4.03;;;2.65;;
49440;SDS011;35317;51.978;6.296;2023-06-10T12:22:06;5.78;;;2.65;;
49440;SDS011;35317;51.978;6.296;2023-06-10T12:27:10;3.67;;;2.60;;
49440;SDS011;35317;51.978;6.296;2023-06-10T12:32:12;4.15;;;2.33;;
49440;SDS011;35317;51.978;6.296;2023-06-10T12:37:15;3.40;;;2.63;;
49440;SDS011;35317;51.978;6.296;2023-06-10T12:42:16;4.75;;;2.78;;
49440;SDS011;35317;51.978;6.296;2023-06-10T12:47:17;4.43;;;2.53;;
49440;SDS011;35317;51.978;6.296;2023-06-10T12:52:29;3.70;;;2.53;;
49440;SDS011;35317;51.978;6.296;2023-06-10T12:57:30;3.53;;;2.75;;
49440;SDS011;35317;51.978;6.296;2023-06-10T13:02:31;3.95;;;2.65;;
49440;SDS011;35317;51.978;6.296;2023-06-10T13:07:32;3.85;;;2.58;;
49440;SDS011;35317;51.978;6.296;2023-06-10T13:12:33;4.40;;;2.30;;
49440;SDS011;35317;51.978;6.296;2023-06-10T13:17:33;4.13;;;2.70;;
49440;SDS011;35317;51.978;6.296;2023-06-10T13:22:35;5.28;;;3.00;;
49440;SDS011;35317;51.978;6.296;2023-06-10T13:27:36;3.95;;;2.63;;
49440;SDS011;35317;51.978;6.296;2023-06-10T13:32:42;2.80;;;2.47;;
49440;SDS011;35317;51.978;6.296;2023-06-10T13:37:42;2.83;;;2.40;;
49440;SDS011;35317;51.978;6.296;2023-06-10T13:42:43;4.13;;;2.85;;
49440;SDS011;35317;51.978;6.296;2023-06-10T13:47:45;3.30;;;3.00;;
49440;SDS011;35317;51.978;6.296;2023-06-10T13:52:45;3.63;;;2.55;;
49440;SDS011;35317;51.978;6.296;2023-06-10T13:57:46;3.38;;;2.40;;
49440;SDS011;35317;51.978;6.296;2023-06-10T14:02:47;3.30;;;3.00;;
49440;SDS011;35317;51.978;6.296;2023-06-10T14:07:48;3.08;;;2.60;;
49440;SDS011;35317;51.978;6.296;2023-06-10T14:12:48;6.35;;;3.00;;
49440;SDS011;35317;51.978;6.296;2023-06-10T14:17:50;3.70;;;2.80;;
49440;SDS011;35317;51.978;6.296;2023-06-10T14:22:50;2.95;;;2.65;;
49440;SDS011;35317;51.978;6.296;2023-06-10T14:27:51;3.88;;;2.90;;
49440;SDS011;35317;51.978;6.296;2023-06-10T14:32:52;6.22;;;3.08;;
49440;SDS011;35317;51.978;6.296;2023-06-10T14:37:53;3.58;;;2.75;;
49440;SDS011;35317;51.978;6.296;2023-06-10T14:42:54;5.18;;;2.80;;
49440;SDS011;35317;51.978;6.296;2023-06-10T14:47:57;4.97;;;2.90;;
49440;SDS011;35317;51.978;6.296;2023-06-10T14:52:58;3.35;;;2.92;;
49440;SDS011;35317;51.978;6.296;2023-06-10T14:57:59;4.90;;;2.63;;
49440;SDS011;35317;51.978;6.296;2023-06-10T15:03:00;4.40;;;3.10;;
49440;SDS011;35317;51.978;6.296;2023-06-10T15:08:01;3.83;;;2.75;;
49440;SDS011;35317;51.978;6.296;2023-06-10T15:13:02;3.13;;;2.65;;
49440;SDS011;35317;51.978;6.296;2023-06-10T15:18:03;4.80;;;2.80;;
49440;SDS011;35317;51.978;6.296;2023-06-10T15:23:03;3.75;;;2.95;;
49440;SDS011;35317;51.978;6.296;2023-06-10T15:28:04;3.42;;;2.95;;
49440;SDS011;35317;51.978;6.296;2023-06-10T15:33:05;3.25;;;2.88;;
49440;SDS011;35317;51.978;6.296;2023-06-10T15:38:06;3.40;;;2.70;;
49440;SDS011;35317;51.978;6.296;2023-06-10T15:43:07;3.95;;;3.22;;
49440;SDS011;35317;51.978;6.296;2023-06-10T15:48:08;3.42;;;3.13;;
49440;SDS011;35317;51.978;6.296;2023-06-10T15:53:09;4.45;;;3.00;;
49440;SDS011;35317;51.978;6.296;2023-06-10T15:58:10;3.80;;;2.90;;
49440;SDS011;35317;51.978;6.296;2023-06-10T16:03:11;3.17;;;2.80;;
49440;SDS011;35317;51.978;6.296;2023-06-10T16:08:13;6.03;;;3.50;;
49440;SDS011;35317;51.978;6.296;2023-06-10T16:13:14;3.10;;;2.80;;
49440;SDS011;35317;51.978;6.296;2023-06-10T16:18:15;4.38;;;2.97;;
49440;SDS011;35317;51.978;6.296;2023-06-10T16:23:21;3.15;;;2.65;;
49440;SDS011;35317;51.978;6.296;2023-06-10T16:28:21;4.68;;;3.03;;
49440;SDS011;35317;51.978;6.296;2023-06-10T16:33:22;5.00;;;3.15;;
49440;SDS011;35317;51.978;6.296;2023-06-10T16:38:23;5.70;;;3.20;;
49440;SDS011;35317;51.978;6.296;2023-06-10T16:43:25;5.85;;;3.40;;
49440;SDS011;35317;51.978;6.296;2023-06-10T16:48:26;5.07;;;3.55;;
49440;SDS011;35317;51.978;6.296;2023-06-10T16:53:27;5.38;;;2.83;;
49440;SDS011;35317;51.978;6.296;2023-06-10T16:58:30;4.15;;;3.10;;
49440;SDS011;35317;51.978;6.296;2023-06-10T17:03:30;4.38;;;3.40;;
49440;SDS011;35317;51.978;6.296;2023-06-10T17:08:31;3.25;;;2.95;;
49440;SDS011;35317;51.978;6.296;2023-06-10T17:13:32;6.93;;;3.40;;
49440;SDS011;35317;51.978;6.296;2023-06-10T17:18:33;3.60;;;3.30;;
49440;SDS011;35317;51.978;6.296;2023-06-10T17:23:34;7.35;;;4.22;;
49440;SDS011;35317;51.978;6.296;2023-06-10T17:28:35;3.40;;;2.92;;
49440;SDS011;35317;51.978;6.296;2023-06-10T17:33:36;3.63;;;3.20;;
49440;SDS011;35317;51.978;6.296;2023-06-10T17:38:36;4.55;;;3.10;;
49440;SDS011;35317;51.978;6.296;2023-06-10T17:43:37;4.18;;;3.00;;
49440;SDS011;35317;51.978;6.296;2023-06-10T17:48:38;3.65;;;3.03;;
49440;SDS011;35317;51.978;6.296;2023-06-10T17:53:42;6.10;;;3.17;;
49440;SDS011;35317;51.978;6.296;2023-06-10T17:58:42;7.63;;;3.10;;
49440;SDS011;35317;51.978;6.296;2023-06-10T18:03:43;5.05;;;3.60;;
49440;SDS011;35317;51.978;6.296;2023-06-10T18:08:44;4.75;;;3.22;;
49440;SDS011;35317;51.978;6.296;2023-06-10T18:13:46;5.72;;;3.28;;
49440;SDS011;35317;51.978;6.296;2023-06-10T18:18:46;5.45;;;3.20;;
49440;SDS011;35317;51.978;6.296;2023-06-10T18:23:47;5.90;;;3.60;;
49440;SDS011;35317;51.978;6.296;2023-06-10T18:28:48;8.80;;;3.40;;
49440;SDS011;35317;51.978;6.296;2023-06-10T18:33:49;3.42;;;3.13;;
49440;SDS011;35317;51.978;6.296;2023-06-10T18:38:50;5.00;;;3.30;;
49440;SDS011;35317;51.978;6.296;2023-06-10T18:43:50;4.80;;;3.22;;
49440;SDS011;35317;51.978;6.296;2023-06-10T18:48:51;6.03;;;2.97;;
49440;SDS011;35317;51.978;6.296;2023-06-10T18:53:52;5.60;;;3.35;;
49440;SDS011;35317;51.978;6.296;2023-06-10T18:58:53;4.63;;;3.70;;
49440;SDS011;35317;51.978;6.296;2023-06-10T19:03:54;5.07;;;3.42;;
49440;SDS011;35317;51.978;6.296;2023-06-10T19:08:55;5.15;;;3.42;;
49440;SDS011;35317;51.978;6.296;2023-06-10T19:13:56;7.07;;;3.50;;
49440;SDS011;35317;51.978;6.296;2023-06-10T19:18:57;6.15;;;3.33;;
49440;SDS011;35317;51.978;6.296;2023-06-10T19:23:58;4.50;;;3.70;;
49440;SDS011;35317;51.978;6.296;2023-06-10T19:28:59;4.38;;;3.53;;
49440;SDS011;35317;51.978;6.296;2023-06-10T19:34:00;5.05;;;3.72;;
49440;SDS011;35317;51.978;6.296;2023-06-10T19:39:00;4.82;;;3.78;;
49440;SDS011;35317;51.978;6.296;2023-06-10T19:44:01;5.63;;;4.47;;
49440;SDS011;35317;51.978;6.296;2023-06-10T19:49:02;5.07;;;3.38;;
49440;SDS011;35317;51.978;6.296;2023-06-10T19:54:06;4.35;;;3.60;;
49440;SDS011;35317;51.978;6.296;2023-06-10T19:59:06;5.13;;;4.13;;
49440;SDS011;35317;51.978;6.296;2023-06-10T20:04:07;5.03;;;3.88;;
49440;SDS011;35317;51.978;6.296;2023-06-10T20:09:08;4.47;;;3.60;;
49440;SDS011;35317;51.978;6.296;2023-06-10T20:14:10;4.38;;;3.78;;
49440;SDS011;35317;51.978;6.296;2023-06-10T20:19:11;5.95;;;3.80;;
49440;SDS011;35317;51.978;6.296;2023-06-10T20:24:12;7.18;;;4.15;;
49440;SDS011;35317;51.978;6.296;2023-06-10T20:29:13;8.10;;;5.00;;
49440;SDS011;35317;51.978;6.296;2023-06-10T20:34:14;7.70;;;4.72;;
49440;SDS011;35317;51.978;6.296;2023-06-10T20:39:14;7.22;;;5.07;;
49440;SDS011;35317;51.978;6.296;2023-06-10T20:44:16;6.85;;;4.65;;
49440;SDS011;35317;51.978;6.296;2023-06-10T20:49:16;9.20;;;5.03;;
49440;SDS011;35317;51.978;6.296;2023-06-10T20:54:17;8.40;;;5.88;;
49440;SDS011;35317;51.978;6.296;2023-06-10T20:59:18;8.48;;;5.05;;
49440;SDS011;35317;51.978;6.296;2023-06-10T21:04:19;8.18;;;6.43;;
49440;SDS011;35317;51.978;6.296;2023-06-10T21:09:25;10.50;;;6.28;;
49440;SDS011;35317;51.978;6.296;2023-06-10T21:14:26;9.82;;;5.97;;
49440;SDS011;35317;51.978;6.296;2023-06-10T21:19:27;10.18;;;5.38;;
49440;SDS011;35317;51.978;6.296;2023-06-10T21:24:28;9.45;;;5.45;;
49440;SDS011;35317;51.978;6.296;2023-06-10T21:29:28;9.02;;;5.68;;
49440;SDS011;35317;51.978;6.296;2023-06-10T21:34:29;8.60;;;6.65;;
49440;SDS011;35317;51.978;6.296;2023-06-10T21:39:30;13.05;;;6.47;;
49440;SDS011;35317;51.978;6.296;2023-06-10T22:17:07;7.55;;;4.97;;
49440;SDS011;35317;51.978;6.296;2023-06-10T22:22:11;6.75;;;4.75;;
49440;SDS011;35317;51.978;6.296;2023-06-10T22:27:12;6.63;;;5.13;;
49440;SDS011;35317;51.978;6.296;2023-06-10T22:32:13;5.72;;;4.57;;
49440;SDS011;35317;51.978;6.296;2023-06-10T22:37:21;8.10;;;4.20;;
49440;SDS011;35317;51.978;6.296;2023-06-10T22:42:46;6.72;;;5.15;;
49440;SDS011;35317;51.978;6.296;2023-06-10T22:47:47;5.95;;;4.78;;
49440;SDS011;35317;51.978;6.296;2023-06-10T22:52:52;6.50;;;4.97;;
49440;SDS011;35317;51.978;6.296;2023-06-10T22:57:53;9.70;;;5.20;;
49440;SDS011;35317;51.978;6.296;2023-06-10T23:02:58;6.95;;;4.90;;
49440;SDS011;35317;51.978;6.296;2023-06-10T23:13:54;6.75;;;4.72;;
49440;SDS011;35317;51.978;6.296;2023-06-10T23:18:56;7.93;;;5.20;;
49440;SDS011;35317;51.978;6.296;2023-06-10T23:23:59;6.40;;;5.13;;
49440;SDS011;35317;51.978;6.296;2023-06-10T23:29:09;7.80;;;5.05;;
49440;SDS011;35317;51.978;6.296;2023-06-10T23:34:13;7.45;;;5.38;;
49440;SDS011;35317;51.978;6.296;2023-06-10T23:39:29;8.02;;;4.93;;
49440;SDS011;35317;51.978;6.296;2023-06-10T23:51:39;7.72;;;5.10;;
